createdAt,value
2022-10-05T00:01:30.594Z,72.37
2022-10-05T00:04:33.617Z,72.28
2022-10-05T00:07:36.399Z,72.11
2022-10-05T00:10:41.583Z,72.08
2022-10-05T00:13:44.458Z,72.01
2022-10-05T00:16:48.413Z,72.11
2022-10-05T00:19:54.195Z,71.81
2022-10-05T00:23:01.092Z,71.71
2022-10-05T00:26:14.707Z,71.70
2022-10-05T00:29:23.883Z,71.65
2022-10-05T00:32:27.263Z,71.57
2022-10-05T00:35:30.965Z,71.53
2022-10-05T00:38:33.767Z,72.00
2022-10-05T00:42:00.943Z,72.14
2022-10-05T00:45:09.252Z,72.14
2022-10-05T00:48:39.289Z,72.05
2022-10-05T00:51:50.148Z,72.33
2022-10-05T00:55:07.961Z,72.11
2022-10-05T00:58:29.791Z,72.13
2022-10-05T01:01:40.191Z,71.93
2022-10-05T01:04:54.469Z,72.00
2022-10-05T01:08:16.371Z,71.88
2022-10-05T01:11:38.808Z,72.08
2022-10-05T01:14:56.494Z,72.17
2022-10-05T01:18:20.543Z,72.52
2022-10-05T01:21:26.223Z,72.38
2022-10-05T01:25:02.936Z,72.12
2022-10-05T01:28:16.436Z,72.06
2022-10-05T01:31:26.594Z,72.00
2022-10-05T01:35:14.560Z,71.98
2022-10-05T01:38:24.196Z,72.15
2022-10-05T01:41:52.903Z,72.10
2022-10-05T01:45:01.543Z,71.91
2022-10-05T01:48:04.314Z,71.61
2022-10-05T01:51:30.994Z,71.94
2022-10-05T01:55:03.477Z,72.13
2022-10-05T01:58:08.673Z,71.93
2022-10-05T02:01:36.514Z,71.63
2022-10-05T02:05:01.341Z,71.54
2022-10-05T02:08:09.927Z,71.54
2022-10-05T02:11:17.718Z,71.39
2022-10-05T02:14:25.443Z,71.14
2022-10-05T02:17:38.911Z,70.92
2022-10-05T02:20:43.002Z,70.91
2022-10-05T02:23:48.334Z,70.67
2022-10-05T02:26:53.508Z,70.43
2022-10-05T02:30:01.942Z,70.29
2022-10-05T02:33:10.505Z,70.20
2022-10-05T02:36:18.023Z,70.17
2022-10-05T02:39:35.353Z,70.05
2022-10-05T02:42:43.848Z,70.09
2022-10-05T02:46:11.880Z,69.92
2022-10-05T02:49:15.589Z,69.89
2022-10-05T02:52:34.077Z,69.74
2022-10-05T02:55:51.153Z,69.66
2022-10-05T02:59:06.197Z,69.46
2022-10-05T03:02:14.753Z,69.44
2022-10-05T03:05:24.009Z,69.32
2022-10-05T03:08:45.043Z,69.31
2022-10-05T03:12:05.182Z,69.50
2022-10-05T03:15:21.588Z,69.54
2022-10-05T03:19:06.864Z,69.25
2022-10-05T03:22:31.762Z,69.20
2022-10-05T03:25:59.484Z,69.19
2022-10-05T03:29:08.266Z,69.20
2022-10-05T03:32:32.327Z,69.25
2022-10-05T03:35:59.008Z,69.28
2022-10-05T03:39:26.966Z,69.38
2022-10-05T03:43:00.181Z,69.63
2022-10-05T03:46:37.845Z,69.82
2022-10-05T03:49:59.548Z,69.92
2022-10-05T03:53:04.153Z,70.01
2022-10-05T03:56:20.375Z,69.98
2022-10-05T03:59:42.249Z,69.82
2022-10-05T04:02:55.998Z,69.63
2022-10-05T04:06:07.412Z,69.70
2022-10-05T04:09:18.469Z,69.96
2022-10-05T04:12:44.756Z,70.05
2022-10-05T04:16:13.995Z,70.02
2022-10-05T04:19:35.301Z,70.07
2022-10-05T04:22:53.627Z,70.00
2022-10-05T04:26:07.854Z,70.01
2022-10-05T04:29:31.715Z,70.08
2022-10-05T04:32:55.519Z,70.15
2022-10-05T04:36:11.405Z,70.23
2022-10-05T04:39:28.303Z,70.25
2022-10-05T04:42:38.160Z,70.28
2022-10-05T04:45:59.955Z,70.17
2022-10-05T04:49:09.435Z,70.16
2022-10-05T04:53:04.384Z,70.00
2022-10-05T04:56:25.658Z,69.96
2022-10-05T04:59:51.563Z,69.86
2022-10-05T05:03:25.544Z,69.77
2022-10-05T05:06:50.522Z,69.92
2022-10-05T05:10:03.138Z,69.72
2022-10-05T05:13:44.625Z,69.86
2022-10-05T05:17:04.545Z,69.82
2022-10-05T05:20:46.617Z,69.87
2022-10-05T05:24:06.893Z,69.76
2022-10-05T05:27:47.669Z,69.86
2022-10-05T05:31:00.623Z,69.83
2022-10-05T05:34:46.763Z,69.80
2022-10-05T05:38:05.968Z,69.68
2022-10-05T05:41:12.096Z,69.73
2022-10-05T05:44:18.180Z,69.61
2022-10-05T05:47:35.499Z,69.64
2022-10-05T05:50:55.147Z,69.48
2022-10-05T05:54:20.737Z,69.27
2022-10-05T05:57:30.126Z,69.27
2022-10-05T06:00:41.263Z,69.15
2022-10-05T06:03:49.115Z,69.02
2022-10-05T06:06:54.335Z,69.15
2022-10-05T06:10:04.403Z,69.23
2022-10-05T06:13:24.385Z,69.08
2022-10-05T06:16:33.845Z,69.15
2022-10-05T06:19:40.092Z,69.02
2022-10-05T06:22:47.442Z,69.17
2022-10-05T06:26:17.665Z,68.92
2022-10-05T06:29:25.744Z,68.79
2022-10-05T06:32:50.359Z,68.89
2022-10-05T06:36:32.942Z,68.80
2022-10-05T06:39:44.796Z,68.57
2022-10-05T06:43:00.535Z,68.49
2022-10-05T06:46:26.343Z,68.10
2022-10-05T06:49:52.049Z,68.03
2022-10-05T06:53:32.372Z,67.86
2022-10-05T06:56:47.960Z,67.76
2022-10-05T07:00:01.996Z,67.61
2022-10-05T07:03:32.453Z,67.80
2022-10-05T07:06:42.015Z,67.84
2022-10-05T07:10:23.459Z,67.63
2022-10-05T07:13:57.567Z,67.57
2022-10-05T07:17:09.572Z,67.73
2022-10-05T07:20:38.191Z,67.65
2022-10-05T07:23:46.135Z,67.31
2022-10-05T07:27:12.279Z,67.12
2022-10-05T07:30:15.405Z,67.07
2022-10-05T07:33:24.281Z,67.04
2022-10-05T07:36:59.150Z,66.53
2022-10-05T07:40:21.006Z,66.61
2022-10-05T07:43:57.916Z,66.73
2022-10-05T07:47:30.924Z,66.67
2022-10-05T07:50:43.121Z,66.76
2022-10-05T07:53:59.360Z,66.59
2022-10-05T07:57:33.355Z,66.45
2022-10-05T08:01:00.941Z,66.38
2022-10-05T08:04:24.859Z,65.91
2022-10-05T08:07:30.299Z,65.92
2022-10-05T08:11:07.047Z,65.65
2022-10-05T08:14:28.099Z,65.61
2022-10-05T08:17:59.276Z,65.52
2022-10-05T08:21:05.877Z,64.69
2022-10-05T08:24:36.697Z,64.20
2022-10-05T08:27:50.157Z,64.44
2022-10-05T08:30:55.742Z,64.69
2022-10-05T08:34:20.382Z,64.07
2022-10-05T08:37:30.834Z,64.30
2022-10-05T08:40:42.998Z,63.56
2022-10-05T08:44:12.903Z,63.59
2022-10-05T08:47:33.890Z,63.47
2022-10-05T08:50:55.501Z,63.71
2022-10-05T08:54:36.863Z,63.87
2022-10-05T08:57:51.625Z,64.39
2022-10-05T09:00:58.077Z,64.71
2022-10-05T09:04:16.953Z,64.95
2022-10-05T09:07:40.073Z,65.18
2022-10-05T09:11:00.949Z,65.10
2022-10-05T09:14:06.915Z,64.96
2022-10-05T09:17:46.298Z,64.77
2022-10-05T09:20:55.589Z,64.03
2022-10-05T09:24:19.397Z,63.31
2022-10-05T09:27:53.942Z,62.97
2022-10-05T09:31:07.683Z,62.82
2022-10-05T09:34:37.867Z,63.25
2022-10-05T09:37:53.665Z,62.60
2022-10-05T09:41:16.860Z,62.47
2022-10-05T09:44:41.533Z,62.10
2022-10-05T09:48:03.287Z,62.18
2022-10-05T09:51:15.049Z,62.52
2022-10-05T09:54:38.151Z,62.25
2022-10-05T09:58:03.645Z,62.36
2022-10-05T10:01:34.318Z,61.62
2022-10-05T10:05:05.835Z,59.93
2022-10-05T10:08:32.452Z,60.28
2022-10-05T10:11:53.155Z,59.53
2022-10-05T10:15:11.188Z,60.34
2022-10-05T10:18:46.564Z,60.11
2022-10-05T10:22:08.121Z,59.65
2022-10-05T10:25:40.833Z,59.89
2022-10-05T10:29:21.310Z,60.33
2022-10-05T10:32:48.999Z,58.99
2022-10-05T10:36:03.102Z,59.25
2022-10-05T10:39:24.352Z,60.08
2022-10-05T10:42:37.741Z,59.73
2022-10-05T10:45:56.867Z,59.83
2022-10-05T10:49:16.257Z,59.95
2022-10-05T10:52:34.417Z,59.48
2022-10-05T10:55:46.015Z,60.02
2022-10-05T10:58:58.251Z,59.18
2022-10-05T11:02:27.297Z,56.72
2022-10-05T11:05:34.770Z,56.80
2022-10-05T11:09:09.519Z,56.84
2022-10-05T11:12:49.979Z,55.53
2022-10-05T11:16:41.913Z,53.78
2022-10-05T11:20:15.295Z,55.83
2022-10-05T11:23:38.952Z,55.02
2022-10-05T11:27:16.306Z,55.65
2022-10-05T11:30:51.239Z,54.89
2022-10-05T11:34:18.975Z,55.18
2022-10-05T11:37:56.041Z,53.80
2022-10-05T11:41:20.010Z,54.10
2022-10-05T11:44:38.541Z,54.15
2022-10-05T11:48:20.707Z,54.14
2022-10-05T11:51:34.386Z,53.63
2022-10-05T11:55:09.733Z,54.76
2022-10-05T11:58:26.505Z,54.97
2022-10-05T12:01:39.746Z,55.03
2022-10-05T12:04:54.600Z,55.20
2022-10-05T12:08:10.860Z,54.58
2022-10-05T12:11:34.843Z,54.94
2022-10-05T12:14:59.293Z,54.80
2022-10-05T12:18:25.726Z,54.39
2022-10-05T12:21:50.283Z,54.63
2022-10-05T12:25:22.403Z,54.42
2022-10-05T12:28:38.024Z,54.74
2022-10-05T12:31:52.858Z,55.96
2022-10-05T12:35:11.976Z,55.93
2022-10-05T12:38:30.726Z,56.36
2022-10-05T12:41:56.589Z,56.27
2022-10-05T12:45:29.916Z,56.23
2022-10-05T12:48:53.264Z,56.04
2022-10-05T12:52:00.436Z,56.25
2022-10-05T12:55:03.321Z,56.83
2022-10-05T12:58:24.123Z,56.76
2022-10-05T13:01:39.394Z,56.54
2022-10-05T13:05:03.688Z,56.62
2022-10-05T13:08:12.977Z,56.66
2022-10-05T13:11:27.255Z,57.16
2022-10-05T13:15:03.778Z,57.03
2022-10-05T13:18:28.101Z,56.98
2022-10-05T13:21:56.935Z,57.09
2022-10-05T13:25:39.176Z,56.67
2022-10-05T13:28:59.154Z,57.08
2022-10-05T13:32:15.344Z,57.23
2022-10-05T13:35:24.208Z,56.98
2022-10-05T13:39:01.589Z,56.90
2022-10-05T13:42:10.342Z,56.50
2022-10-05T13:45:20.229Z,56.98
2022-10-05T13:48:46.555Z,56.73
2022-10-05T13:51:59.197Z,56.18
2022-10-05T13:55:15.697Z,56.19
2022-10-05T13:58:45.230Z,56.11
2022-10-05T14:02:00.429Z,56.90
2022-10-05T14:05:15.311Z,55.56
2022-10-05T14:08:18.848Z,55.68
2022-10-05T14:11:33.558Z,55.60
2022-10-05T14:14:46.885Z,55.81
2022-10-05T14:17:52.902Z,56.37
2022-10-05T14:21:03.445Z,55.89
2022-10-05T14:24:47.537Z,55.36
2022-10-05T14:28:01.291Z,55.29
2022-10-05T14:31:27.707Z,55.47
2022-10-05T14:34:39.728Z,55.88
2022-10-05T14:37:59.001Z,56.11
2022-10-05T14:41:20.395Z,56.39
2022-10-05T14:48:00.478Z,57.03
2022-10-05T14:51:11.830Z,56.97
2022-10-05T14:54:41.566Z,57.08
2022-10-05T14:58:03.724Z,57.20
2022-10-05T15:01:31.659Z,57.24
2022-10-05T15:04:43.139Z,57.35
2022-10-05T15:07:49.500Z,57.08
2022-10-05T15:10:56.020Z,56.70
2022-10-05T15:14:00.104Z,56.39
2022-10-05T15:17:11.620Z,56.59
2022-10-05T15:20:25.869Z,56.68
2022-10-05T15:23:49.284Z,56.87
2022-10-05T15:26:56.708Z,56.74
2022-10-05T15:30:18.285Z,56.81
2022-10-05T15:33:30.914Z,57.00
2022-10-05T15:36:48.928Z,57.15
2022-10-05T15:40:14.958Z,57.14
2022-10-05T15:43:21.152Z,57.43
2022-10-05T15:46:36.178Z,57.33
2022-10-05T15:49:59.966Z,57.45
2022-10-05T15:53:16.035Z,57.65
2022-10-05T15:56:36.741Z,57.72
2022-10-05T16:00:00.770Z,57.87
2022-10-05T16:03:27.715Z,57.88
2022-10-05T16:07:01.873Z,58.10
2022-10-05T16:10:19.207Z,58.17
2022-10-05T16:13:38.664Z,58.29
2022-10-05T16:17:02.676Z,58.34
2022-10-05T16:20:25.321Z,58.44
2022-10-05T16:24:17.001Z,58.52
2022-10-05T16:27:48.535Z,58.72
2022-10-05T16:31:21.142Z,58.83
2022-10-05T16:34:39.985Z,59.01
2022-10-05T16:38:33.283Z,59.10
2022-10-05T16:41:49.323Z,59.37
2022-10-05T16:45:29.909Z,59.73
2022-10-05T16:48:56.573Z,60.07
2022-10-05T16:52:07.573Z,60.31
2022-10-05T16:55:23.514Z,60.56
2022-10-05T16:58:34.635Z,60.40
2022-10-05T17:02:15.362Z,60.62
2022-10-05T17:05:47.293Z,61.06
2022-10-05T17:09:12.155Z,61.10
2022-10-05T17:12:18.029Z,61.12
2022-10-05T17:15:53.784Z,61.42
2022-10-05T17:19:32.935Z,61.56
2022-10-05T17:22:52.852Z,61.75
2022-10-05T17:26:12.639Z,61.63
2022-10-05T17:29:52.503Z,61.65
2022-10-05T17:33:00.369Z,61.80
2022-10-05T17:36:04.924Z,62.00
2022-10-05T17:39:21.972Z,62.04
2022-10-05T17:42:46.490Z,62.12
2022-10-05T17:45:53.311Z,62.32
2022-10-05T17:48:56.261Z,62.50
2022-10-05T17:52:20.583Z,62.51
2022-10-05T17:55:46.155Z,62.78
2022-10-05T17:58:54.766Z,63.00
2022-10-05T18:02:23.368Z,62.89
2022-10-05T18:05:29.428Z,63.10
2022-10-05T18:08:38.906Z,62.98
2022-10-05T18:11:44.081Z,62.95
2022-10-05T18:15:00.004Z,63.14
2022-10-05T18:18:35.078Z,63.11
2022-10-05T18:21:40.215Z,63.24
2022-10-05T18:25:14.334Z,63.42
2022-10-05T18:28:43.421Z,63.71
2022-10-05T18:32:03.920Z,63.69
2022-10-05T18:35:30.592Z,64.00
2022-10-05T18:38:54.043Z,63.98
2022-10-05T18:42:05.962Z,64.23
2022-10-05T18:45:49.451Z,64.09
2022-10-05T18:49:21.277Z,64.30
2022-10-05T18:52:46.602Z,64.29
2022-10-05T18:56:17.639Z,64.25
2022-10-05T18:59:25.368Z,64.29
2022-10-05T19:02:45.775Z,64.10
2022-10-05T19:06:13.054Z,64.18
2022-10-05T19:09:33.660Z,64.15
2022-10-05T19:13:21.186Z,64.32
2022-10-05T19:16:47.782Z,64.64
2022-10-05T19:20:34.798Z,64.85
2022-10-05T19:24:03.314Z,64.92
2022-10-05T19:27:20.604Z,65.13
2022-10-05T19:30:50.721Z,65.04
2022-10-05T19:34:19.869Z,65.19
2022-10-05T19:37:41.159Z,65.53
2022-10-05T19:41:09.932Z,65.14
2022-10-05T19:44:18.997Z,64.90
2022-10-05T19:47:55.248Z,64.96
2022-10-05T19:51:06.465Z,65.25
2022-10-05T19:54:25.816Z,65.16
2022-10-05T19:57:36.297Z,64.93
2022-10-05T20:00:40.301Z,65.06
2022-10-05T20:03:49.085Z,65.09
2022-10-05T20:06:53.856Z,65.09
2022-10-05T20:10:15.381Z,65.13
2022-10-05T20:13:23.632Z,65.05
2022-10-05T20:16:55.511Z,65.07
2022-10-05T20:20:23.567Z,64.90
2022-10-05T20:23:29.616Z,64.86
2022-10-05T20:27:06.230Z,64.78
2022-10-05T20:30:13.178Z,64.93
2022-10-05T20:33:16.146Z,64.79
2022-10-05T20:36:19.116Z,64.75
2022-10-05T20:39:22.103Z,64.76
2022-10-05T20:42:26.971Z,64.76
2022-10-05T20:45:30.043Z,64.75
2022-10-05T20:48:33.357Z,64.94
2022-10-05T20:51:40.491Z,64.78
2022-10-05T20:54:43.426Z,64.73
2022-10-05T20:57:47.520Z,64.62
2022-10-05T21:01:09.068Z,64.70
2022-10-05T21:04:11.921Z,64.81
2022-10-05T21:07:16.377Z,64.71
2022-10-05T21:10:19.191Z,64.91
2022-10-05T21:13:21.992Z,64.91
2022-10-05T21:16:25.101Z,64.94
2022-10-05T21:19:29.386Z,65.04
2022-10-05T21:22:32.172Z,65.24
2022-10-05T21:25:35.238Z,65.17
2022-10-05T21:28:39.640Z,65.16
2022-10-05T21:31:42.920Z,65.28
2022-10-05T21:34:45.782Z,65.19
2022-10-05T21:37:48.677Z,65.40
2022-10-05T21:40:51.691Z,65.46
2022-10-05T21:43:54.821Z,65.65
2022-10-05T21:46:57.886Z,65.40
2022-10-05T21:50:03.739Z,65.52
2022-10-05T21:53:09.186Z,65.45
2022-10-05T21:56:17.098Z,65.65
2022-10-05T21:59:24.173Z,65.78
2022-10-05T22:02:27.117Z,65.63
2022-10-05T22:05:32.062Z,65.59
2022-10-05T22:08:35.730Z,65.48
2022-10-05T22:11:38.787Z,65.35
2022-10-05T22:14:41.915Z,65.62
2022-10-05T22:17:46.283Z,65.64
2022-10-05T22:20:49.849Z,65.53
2022-10-05T22:23:52.852Z,65.65
2022-10-05T22:26:55.986Z,65.66
2022-10-05T22:29:59.313Z,65.77
2022-10-05T22:33:02.180Z,65.68
2022-10-05T22:36:06.400Z,65.76
2022-10-05T22:39:09.234Z,65.83
2022-10-05T22:42:12.294Z,65.91
2022-10-05T22:45:15.286Z,65.99
2022-10-05T22:48:18.980Z,65.93
2022-10-05T22:51:21.874Z,65.91
2022-10-05T22:54:29.325Z,65.87
2022-10-05T22:57:40.157Z,66.16
2022-10-05T23:00:59.055Z,66.29
2022-10-05T23:04:02.679Z,66.03
2022-10-05T23:07:06.890Z,66.16
2022-10-05T23:10:12.163Z,66.13
2022-10-05T23:13:15.453Z,66.12
2022-10-05T23:16:21.647Z,66.18
2022-10-05T23:19:24.603Z,66.38
2022-10-05T23:22:27.509Z,66.26
2022-10-05T23:25:31.806Z,66.22
2022-10-05T23:28:34.833Z,66.18
2022-10-05T23:31:37.918Z,66.15
2022-10-05T23:34:40.756Z,66.24
2022-10-05T23:37:45.023Z,66.19
2022-10-05T23:40:47.900Z,66.16
2022-10-05T23:43:50.814Z,66.02
2022-10-05T23:46:54.213Z,66.35
2022-10-05T23:49:57.152Z,66.31
2022-10-05T23:52:59.976Z,66.40
2022-10-05T23:56:04.017Z,66.22
2022-10-05T23:59:06.921Z,66.24
